Asherville, Missouri
Current Conditions -  °F | °C
As of 4:53 AM on Friday 19 Dec 2014 (Local Time) from KPOF Reporting Station
Overcast Overcast  
Wind Chill: 32°   Ceiling: 800
Heat Index: 36°   Visibility: 7mi
Dew Point: 32°   Wind: 5mph
Humidity: 86%   Direction: 50°NE
Pressure: 30.25"   Gusts: NA
Location:  36.9506°N, 90.1582°W
Report Text: KPOF 191053Z AUTO 05004KT 7SM OVC008 02/00 A3025 RMK AO2 SLP250 T00220000
Loading
Personal Weather Stations






























Interactive Weather Map New forecast layout! Learn more

10-Day Weather Forecast

Advertisements
Track Severe Weather on mobile